Asotin, Washington
Current Conditions -  °F | °C
As of 9:56 PM on Saturday 20 Dec 2014 (Local Time) from KLWS Reporting Station
Light Rain Light Rain  
Wind Chill:   Ceiling: 6000
Heat Index:   Visibility: 10mi
Dew Point:   Wind: 16mph
Humidity: 77%   Direction: 190°S
Pressure: 29.62"   Gusts: 24mph
Location:  46.34°N, 117.05°W
Report Text: KLWS 210556Z 19014G21KT 10SM -RA SCT050 OVC060 08/04 A2962 RMK AO2 SLP037 P0004 60034 T00830044 10083 20056 56029
Loading
Personal Weather Stations






























Interactive Weather Map New forecast layout! Learn more

10-Day Weather Forecast

Advertisements
Track Severe Weather on mobile